createdAt,value
2023-02-17T00:00:55.711Z,129.70
2023-02-17T00:03:23.189Z,133.20
2023-02-17T00:05:51.165Z,134.60
2023-02-17T00:08:19.194Z,134.50
2023-02-17T00:10:45.887Z,134.10
2023-02-17T00:13:12.564Z,125.10
2023-02-17T00:15:39.902Z,133.00
2023-02-17T00:18:06.698Z,125.50
2023-02-17T00:20:33.477Z,130.00
2023-02-17T00:23:00.183Z,128.50
2023-02-17T00:25:26.899Z,119.50
2023-02-17T00:27:53.635Z,121.50
2023-02-17T00:30:20.466Z,128.00
2023-02-17T00:32:47.223Z,124.10
2023-02-17T00:35:14.555Z,134.70
2023-02-17T00:37:45.622Z,131.60
2023-02-17T00:40:13.762Z,124.00
2023-02-17T00:42:40.763Z,126.70
2023-02-17T00:45:08.267Z,134.20
2023-02-17T00:47:34.931Z,128.90
2023-02-17T00:50:01.740Z,129.20
2023-02-17T00:52:28.511Z,150.50
2023-02-17T00:54:55.266Z,134.70
2023-02-17T00:57:22.001Z,134.50
2023-02-17T00:59:48.640Z,128.60
2023-02-17T01:04:42.250Z,134.10
2023-02-17T01:07:09.512Z,131.10
2023-02-17T01:09:36.770Z,133.90
2023-02-17T01:12:04.002Z,140.10
2023-02-17T01:14:31.695Z,132.30
2023-02-17T01:16:58.488Z,138.70
2023-02-17T01:19:26.326Z,140.10
2023-02-17T01:21:53.422Z,142.10
2023-02-17T01:24:20.075Z,138.00
2023-02-17T01:29:13.646Z,139.10
2023-02-17T01:31:41.096Z,145.90
2023-02-17T01:34:12.032Z,148.00
2023-02-17T01:36:39.206Z,158.00
2023-02-17T01:39:06.072Z,145.20
2023-02-17T01:41:32.764Z,132.80
2023-02-17T01:44:09.690Z,153.00
2023-02-17T01:46:39.377Z,137.40
2023-02-17T01:49:17.852Z,135.40
2023-02-17T01:51:53.890Z,135.40
2023-02-17T01:54:30.747Z,132.80
2023-02-17T01:57:01.404Z,134.50
2023-02-17T01:59:29.759Z,133.90
2023-02-17T02:02:01.637Z,126.50
2023-02-17T02:04:31.963Z,132.60
2023-02-17T02:06:59.815Z,129.00
2023-02-17T02:09:41.641Z,131.90
2023-02-17T02:12:24.582Z,134.90
2023-02-17T02:14:52.889Z,125.00
2023-02-17T02:17:38.360Z,132.90
2023-02-17T02:20:32.859Z,125.40
2023-02-17T02:23:19.027Z,132.30
2023-02-17T02:26:16.978Z,137.50
2023-02-17T02:29:10.853Z,136.20
2023-02-17T02:31:50.467Z,122.90
2023-02-17T02:34:23.874Z,129.70
2023-02-17T02:36:54.262Z,135.60
2023-02-17T02:39:26.842Z,129.20
2023-02-17T02:41:58.488Z,138.90
2023-02-17T02:44:25.425Z,128.70
2023-02-17T02:47:42.408Z,130.40
2023-02-17T02:50:14.263Z,132.50
2023-02-17T02:52:56.898Z,142.20
2023-02-17T02:55:30.852Z,136.40
2023-02-17T03:01:03.965Z,129.80
2023-02-17T03:03:47.256Z,136.70
2023-02-17T03:06:40.431Z,127.10
2023-02-17T03:09:12.895Z,147.10
2023-02-17T03:11:42.127Z,144.60
2023-02-17T03:14:16.291Z,142.90
2023-02-17T03:16:46.680Z,146.90
2023-02-17T03:19:15.181Z,138.10
2023-02-17T03:21:49.187Z,151.60
2023-02-17T03:24:16.153Z,145.20
2023-02-17T03:26:43.437Z,145.90
2023-02-17T03:31:37.684Z,142.20
2023-02-17T03:34:06.157Z,142.80
2023-02-17T03:36:33.630Z,142.30
2023-02-17T03:39:00.405Z,141.70
2023-02-17T03:41:27.571Z,141.60
2023-02-17T03:43:54.613Z,137.60
2023-02-17T03:46:21.490Z,151.80
2023-02-17T03:48:48.159Z,149.80
2023-02-17T03:53:46.440Z,149.70
2023-02-17T03:56:14.381Z,150.60
2023-02-17T03:58:42.020Z,149.20
2023-02-17T04:01:10.794Z,144.80
2023-02-17T04:03:39.386Z,137.90
2023-02-17T04:06:08.019Z,107.30
2023-02-17T04:08:35.031Z,102.90
2023-02-17T04:11:04.215Z,132.90
2023-02-17T04:13:31.506Z,138.80
2023-02-17T04:15:58.907Z,105.40
2023-02-17T04:18:25.690Z,99.30
2023-02-17T04:20:54.386Z,96.00
2023-02-17T04:23:21.237Z,101.30
2023-02-17T04:25:48.406Z,101.50
2023-02-17T04:28:16.979Z,99.30
2023-02-17T04:30:48.572Z,88.30
2023-02-17T04:33:16.556Z,83.90
2023-02-17T04:35:43.424Z,78.80
2023-02-17T04:38:10.763Z,77.00
2023-02-17T04:40:38.232Z,71.80
2023-02-17T04:43:05.606Z,71.60
2023-02-17T04:45:32.372Z,70.10
2023-02-17T04:47:59.072Z,75.10
2023-02-17T04:52:52.450Z,62.00
2023-02-17T04:55:19.305Z,70.50
2023-02-17T04:57:45.959Z,71.20
2023-02-17T05:02:39.457Z,73.60
2023-02-17T05:07:33.096Z,70.90
2023-02-17T05:12:26.562Z,68.10
2023-02-17T05:17:19.746Z,65.90
2023-02-17T05:22:13.188Z,73.70
2023-02-17T05:24:39.810Z,70.10
2023-02-17T05:27:06.497Z,66.40
2023-02-17T05:32:00.020Z,62.40
2023-02-17T05:34:27.073Z,60.60
2023-02-17T05:36:53.802Z,73.80
2023-02-17T05:41:49.787Z,67.40
2023-02-17T05:46:43.305Z,64.80
2023-02-17T05:49:10.528Z,60.40
2023-02-17T05:51:37.320Z,60.90
2023-02-17T05:54:04.452Z,59.80
2023-02-17T05:56:31.600Z,74.80
2023-02-17T05:58:58.590Z,82.40
2023-02-17T06:01:25.339Z,77.60
2023-02-17T06:06:18.798Z,80.30
2023-02-17T06:08:45.558Z,80.50
2023-02-17T06:13:38.961Z,75.20
2023-02-17T06:16:06.413Z,74.10
2023-02-17T06:18:33.450Z,75.40
2023-02-17T06:23:28.081Z,70.90
2023-02-17T06:25:55.323Z,71.30
2023-02-17T06:28:22.066Z,74.50
2023-02-17T06:33:16.065Z,75.30
2023-02-17T06:38:11.392Z,68.50
2023-02-17T06:43:06.993Z,59.80
2023-02-17T06:45:35.001Z,70.20
2023-02-17T06:48:01.883Z,73.50
2023-02-17T06:50:28.748Z,66.80
2023-02-17T06:52:55.415Z,67.20
2023-02-17T06:55:22.184Z,71.80
2023-02-17T07:00:15.816Z,69.60
2023-02-17T07:02:42.599Z,66.30
2023-02-17T07:05:10.008Z,71.10
2023-02-17T07:07:36.794Z,71.40
2023-02-17T07:12:30.450Z,63.70
2023-02-17T07:17:24.552Z,67.70
2023-02-17T07:19:51.233Z,63.90
2023-02-17T07:22:17.924Z,77.50
2023-02-17T07:24:44.671Z,78.40
2023-02-17T07:29:38.108Z,70.50
2023-02-17T07:34:31.745Z,74.40
2023-02-17T07:36:58.527Z,76.90
2023-02-17T07:41:51.909Z,69.60
2023-02-17T07:46:45.288Z,71.30
2023-02-17T07:51:39.066Z,64.00
2023-02-17T07:54:06.022Z,72.30
2023-02-17T07:56:33.833Z,70.60
2023-02-17T07:59:00.648Z,66.60
2023-02-17T08:03:54.422Z,55.70
2023-02-17T08:06:23.975Z,63.50
2023-02-17T08:09:10.432Z,67.00
2023-02-17T08:11:56.299Z,64.00
2023-02-17T08:14:25.388Z,66.40
2023-02-17T08:16:52.851Z,72.40
2023-02-17T08:19:20.194Z,69.00
2023-02-17T08:21:47.566Z,75.90
2023-02-17T08:24:16.462Z,73.60
2023-02-17T08:26:43.351Z,77.70
2023-02-17T08:29:10.018Z,81.80
2023-02-17T08:34:09.607Z,81.10
2023-02-17T08:36:39.395Z,103.30
2023-02-17T08:39:10.448Z,104.30
2023-02-17T08:41:38.905Z,100.00
2023-02-17T08:44:11.816Z,100.00
2023-02-17T08:46:39.185Z,96.50
2023-02-17T08:49:07.686Z,85.70
2023-02-17T08:51:35.145Z,85.70
2023-02-17T08:54:03.898Z,92.90
2023-02-17T08:56:31.102Z,105.40
2023-02-17T08:58:57.813Z,96.90
2023-02-17T09:01:24.985Z,85.60
2023-02-17T09:03:54.655Z,83.30
2023-02-17T09:06:21.602Z,81.70
2023-02-17T09:08:49.735Z,77.40
2023-02-17T09:11:19.855Z,72.50
2023-02-17T09:13:47.002Z,76.90
2023-02-17T09:16:14.349Z,72.00
2023-02-17T09:18:41.232Z,82.90
2023-02-17T09:21:11.643Z,85.30
2023-02-17T09:23:38.499Z,82.40
2023-02-17T09:26:07.928Z,82.80
2023-02-17T09:28:35.177Z,82.80
2023-02-17T09:31:20.506Z,86.20
2023-02-17T09:33:48.844Z,91.60
2023-02-17T09:36:18.628Z,100.00
2023-02-17T09:38:45.932Z,110.30
2023-02-17T09:41:37.947Z,103.40
2023-02-17T09:44:19.006Z,109.10
2023-02-17T09:47:05.733Z,111.40
2023-02-17T09:49:40.024Z,109.40
2023-02-17T09:52:38.858Z,110.60
2023-02-17T09:55:13.838Z,101.70
2023-02-17T09:58:03.417Z,113.30
2023-02-17T10:00:35.337Z,114.30
2023-02-17T10:03:43.233Z,113.70
2023-02-17T10:06:18.488Z,125.70
2023-02-17T10:08:53.709Z,121.60
2023-02-17T10:11:34.320Z,123.10
2023-02-17T10:14:17.864Z,125.10
2023-02-17T10:16:51.844Z,126.00
2023-02-17T10:19:29.571Z,131.00
2023-02-17T10:22:05.902Z,123.40
2023-02-17T10:24:32.707Z,133.90
2023-02-17T10:27:12.054Z,134.40
2023-02-17T10:30:20.833Z,137.10
2023-02-17T10:32:56.864Z,135.40
2023-02-17T10:35:46.927Z,147.00
2023-02-17T10:38:18.190Z,122.10
2023-02-17T10:40:49.842Z,134.40
2023-02-17T10:43:24.378Z,161.50
2023-02-17T10:45:51.602Z,114.80
2023-02-17T10:48:26.299Z,153.50
2023-02-17T10:50:57.795Z,149.50
2023-02-17T10:53:29.461Z,154.00
2023-02-17T10:56:12.095Z,156.80
2023-02-17T10:59:06.689Z,158.20
2023-02-17T11:01:34.030Z,156.10
2023-02-17T11:04:07.508Z,119.30
2023-02-17T11:06:52.385Z,160.70
2023-02-17T11:09:29.508Z,152.50
2023-02-17T11:12:15.028Z,129.00
2023-02-17T11:14:47.440Z,133.70
2023-02-17T11:17:21.135Z,131.70
2023-02-17T11:19:57.210Z,135.40
2023-02-17T11:22:45.253Z,144.40
2023-02-17T11:25:22.666Z,132.90
2023-02-17T11:28:15.238Z,143.40
2023-02-17T11:30:52.046Z,137.50
2023-02-17T11:33:40.582Z,132.70
2023-02-17T11:36:13.714Z,141.60
2023-02-17T11:38:40.421Z,124.80
2023-02-17T11:41:08.501Z,119.00
2023-02-17T11:43:37.890Z,139.00
2023-02-17T11:46:41.462Z,133.90
2023-02-17T11:49:23.321Z,135.60
2023-02-17T11:52:03.619Z,132.60
2023-02-17T11:54:43.079Z,123.50
2023-02-17T11:57:34.759Z,127.30
2023-02-17T12:00:22.780Z,136.50
2023-02-17T12:03:11.188Z,119.10
2023-02-17T12:05:54.659Z,129.20
2023-02-17T12:08:33.633Z,127.20
2023-02-17T12:11:16.930Z,104.70
2023-02-17T12:14:06.188Z,114.00
2023-02-17T12:17:01.877Z,131.70
2023-02-17T12:19:36.918Z,114.40
2023-02-17T12:22:45.581Z,113.50
2023-02-17T12:25:29.148Z,110.10
2023-02-17T12:28:08.229Z,92.40
2023-02-17T12:31:12.761Z,104.20
2023-02-17T12:33:48.836Z,96.00
2023-02-17T12:36:18.582Z,93.60
2023-02-17T12:38:52.338Z,84.70
2023-02-17T12:41:41.273Z,85.50
2023-02-17T12:44:18.632Z,73.40
2023-02-17T12:46:50.892Z,70.60
2023-02-17T12:49:25.323Z,66.50
2023-02-17T12:52:11.227Z,76.90
2023-02-17T12:54:56.014Z,60.00
2023-02-17T12:57:30.205Z,58.20
2023-02-17T12:59:58.787Z,58.00
2023-02-17T13:02:26.532Z,62.00
2023-02-17T13:05:01.708Z,58.90
2023-02-17T13:07:31.757Z,62.30
2023-02-17T13:09:58.779Z,79.00
2023-02-17T13:12:25.590Z,94.60
2023-02-17T13:14:57.714Z,95.80
2023-02-17T13:17:55.666Z,94.20
2023-02-17T13:20:38.769Z,85.10
2023-02-17T13:23:11.047Z,95.90
2023-02-17T13:25:38.261Z,97.80
2023-02-17T13:28:19.791Z,90.20
2023-02-17T13:30:48.848Z,79.70
2023-02-17T13:33:21.544Z,67.90
2023-02-17T13:35:49.430Z,54.10
2023-02-17T13:38:30.164Z,59.50
2023-02-17T13:41:04.481Z,55.00
2023-02-17T13:43:40.244Z,57.50
2023-02-17T13:46:08.110Z,53.40
2023-02-17T13:48:36.311Z,44.50
2023-02-17T13:51:09.952Z,42.70
2023-02-17T13:53:40.019Z,39.60
2023-02-17T13:56:10.768Z,33.90
2023-02-17T13:58:42.283Z,41.30
2023-02-17T14:01:16.894Z,35.00
2023-02-17T14:03:50.851Z,34.30
2023-02-17T14:06:41.068Z,38.20
2023-02-17T14:09:29.585Z,34.20
2023-02-17T14:11:57.572Z,38.60
2023-02-17T14:14:29.237Z,38.70
2023-02-17T14:17:02.090Z,43.40
2023-02-17T14:19:29.660Z,46.00
2023-02-17T14:21:56.343Z,38.90
2023-02-17T14:24:40.015Z,33.30
2023-02-17T14:27:08.951Z,39.60
2023-02-17T14:29:48.065Z,34.90
2023-02-17T14:32:27.060Z,34.30
2023-02-17T14:34:53.712Z,33.20
2023-02-17T14:37:25.049Z,31.70
2023-02-17T14:39:51.832Z,31.90
2023-02-17T14:42:18.623Z,32.90
2023-02-17T14:44:45.349Z,31.60
2023-02-17T14:47:12.074Z,31.40
2023-02-17T14:49:38.766Z,35.00
2023-02-17T14:52:31.946Z,28.30
2023-02-17T14:55:00.006Z,32.30
2023-02-17T14:57:27.863Z,35.60
2023-02-17T14:59:57.767Z,31.90
2023-02-17T15:02:25.736Z,33.40
2023-02-17T15:04:52.479Z,32.90
2023-02-17T15:07:19.525Z,31.30
2023-02-17T15:09:48.626Z,40.40
2023-02-17T15:12:21.847Z,42.80
2023-02-17T15:14:48.646Z,41.80
2023-02-17T15:17:16.022Z,41.20
2023-02-17T15:19:45.068Z,45.80
2023-02-17T15:22:15.054Z,48.50
2023-02-17T15:24:42.059Z,45.10
2023-02-17T15:27:14.674Z,44.40
2023-02-17T15:29:41.783Z,47.30
2023-02-17T15:32:20.281Z,43.70
2023-02-17T15:34:47.169Z,45.10
2023-02-17T15:37:13.817Z,44.00
2023-02-17T15:39:40.490Z,42.20
2023-02-17T15:42:13.682Z,44.80
2023-02-17T15:44:44.309Z,45.50
2023-02-17T15:47:17.388Z,46.00
2023-02-17T15:49:44.580Z,47.10
2023-02-17T15:52:13.973Z,48.70
2023-02-17T15:54:42.730Z,47.40
2023-02-17T15:57:21.115Z,42.90
2023-02-17T15:59:47.980Z,45.70
2023-02-17T16:02:23.458Z,49.50
2023-02-17T16:05:08.493Z,47.00
2023-02-17T16:07:36.375Z,47.80
2023-02-17T16:10:05.599Z,51.60
2023-02-17T16:12:32.911Z,53.40
2023-02-17T16:14:59.707Z,54.70
2023-02-17T16:17:27.078Z,50.20
2023-02-17T16:19:53.815Z,48.30
2023-02-17T16:22:20.509Z,52.90
2023-02-17T16:24:47.180Z,47.40
2023-02-17T16:27:16.346Z,52.00
2023-02-17T16:29:43.596Z,51.00
2023-02-17T16:32:13.521Z,53.30
2023-02-17T16:34:40.893Z,56.20
2023-02-17T16:37:18.068Z,61.70
2023-02-17T16:39:45.799Z,54.00
2023-02-17T16:42:14.879Z,53.80
2023-02-17T16:44:42.425Z,48.70
2023-02-17T16:47:19.651Z,59.40
2023-02-17T16:49:47.706Z,72.90
2023-02-17T16:52:26.662Z,55.60
2023-02-17T16:54:54.328Z,70.20
2023-02-17T16:57:21.649Z,59.90
2023-02-17T16:59:48.427Z,58.60
2023-02-17T17:02:15.233Z,91.50
2023-02-17T17:04:42.003Z,68.60
2023-02-17T17:07:13.402Z,60.60
2023-02-17T17:09:40.881Z,53.90
2023-02-17T17:12:07.948Z,47.90
2023-02-17T17:14:34.666Z,47.50
2023-02-17T17:17:02.346Z,41.30
2023-02-17T17:19:29.108Z,42.00
2023-02-17T17:21:55.856Z,37.10
2023-02-17T17:24:22.575Z,42.20
2023-02-17T17:26:51.332Z,43.20
2023-02-17T17:29:19.577Z,39.70
2023-02-17T17:31:46.669Z,41.10
2023-02-17T17:34:13.647Z,44.00
2023-02-17T17:36:43.462Z,39.50
2023-02-17T17:39:20.784Z,41.10
2023-02-17T17:41:47.980Z,35.40
2023-02-17T17:44:15.503Z,37.20
2023-02-17T17:46:43.622Z,45.70
2023-02-17T17:49:13.464Z,45.30
2023-02-17T17:51:40.915Z,42.70
2023-02-17T17:54:08.361Z,44.60
2023-02-17T17:56:38.953Z,43.00
2023-02-17T17:59:06.944Z,42.00
2023-02-17T18:01:34.149Z,42.40
2023-02-17T18:04:01.604Z,40.20
2023-02-17T18:06:37.490Z,40.30
2023-02-17T18:09:07.085Z,34.50
2023-02-17T18:11:35.478Z,39.40
2023-02-17T18:14:06.663Z,40.90
2023-02-17T18:16:35.197Z,34.80
2023-02-17T18:19:04.423Z,41.50
2023-02-17T18:21:31.085Z,36.30
2023-02-17T18:23:57.762Z,35.20
2023-02-17T18:26:24.517Z,39.80
2023-02-17T18:28:51.235Z,37.30
2023-02-17T18:31:19.339Z,40.50
2023-02-17T18:33:46.300Z,37.90
2023-02-17T18:36:16.432Z,40.00
2023-02-17T18:38:44.356Z,46.00
2023-02-17T18:41:24.221Z,44.70
2023-02-17T18:43:51.816Z,41.00
2023-02-17T18:46:19.345Z,39.60
2023-02-17T18:48:46.586Z,40.10
2023-02-17T18:51:15.286Z,39.70
2023-02-17T18:53:42.654Z,37.70
2023-02-17T18:56:14.666Z,47.10
2023-02-17T18:58:41.714Z,47.80
2023-02-17T19:01:18.428Z,42.70
2023-02-17T19:03:45.656Z,39.80
2023-02-17T19:06:16.312Z,42.10
2023-02-17T19:08:47.830Z,45.30
2023-02-17T19:11:16.476Z,45.60
2023-02-17T19:13:43.275Z,46.20
2023-02-17T19:16:16.316Z,41.70
2023-02-17T19:18:44.495Z,41.60
2023-02-17T19:21:12.056Z,41.40
2023-02-17T19:23:39.217Z,43.10
2023-02-17T19:26:07.788Z,46.90
2023-02-17T19:28:37.664Z,42.00
2023-02-17T19:31:16.887Z,50.40
2023-02-17T19:33:45.739Z,43.80
2023-02-17T19:36:16.115Z,50.90
2023-02-17T19:38:43.141Z,49.40
2023-02-17T19:41:11.725Z,47.00
2023-02-17T19:43:39.378Z,48.20
2023-02-17T19:46:06.708Z,51.20
2023-02-17T19:48:34.512Z,49.40
2023-02-17T19:51:04.986Z,47.70
2023-02-17T19:53:33.223Z,51.40
2023-02-17T19:56:27.258Z,50.60
2023-02-17T19:58:55.374Z,58.80
2023-02-17T20:01:24.068Z,55.80
2023-02-17T20:03:52.314Z,53.50
2023-02-17T20:06:21.903Z,56.10
2023-02-17T20:09:03.125Z,55.10
2023-02-17T20:11:32.021Z,57.40
2023-02-17T20:14:00.005Z,64.40
2023-02-17T20:16:28.163Z,59.20
2023-02-17T20:18:55.796Z,68.20
2023-02-17T20:21:28.233Z,61.50
2023-02-17T20:23:55.984Z,62.10
2023-02-17T20:26:26.669Z,59.30
2023-02-17T20:28:54.543Z,60.20
2023-02-17T20:31:21.956Z,59.30
2023-02-17T20:33:48.804Z,69.30
2023-02-17T20:36:15.700Z,67.10
2023-02-17T20:38:42.470Z,64.90
2023-02-17T20:41:14.099Z,64.30
2023-02-17T20:43:40.841Z,66.10
2023-02-17T20:46:08.271Z,67.20
2023-02-17T20:48:35.323Z,72.00
2023-02-17T20:51:04.232Z,68.00
2023-02-17T20:53:31.220Z,65.30
2023-02-17T20:55:57.956Z,72.40
2023-02-17T20:58:24.690Z,62.90
2023-02-17T21:00:51.539Z,66.50
2023-02-17T21:03:18.323Z,72.60
2023-02-17T21:05:45.676Z,68.90
2023-02-17T21:08:12.416Z,65.90
2023-02-17T21:10:40.848Z,69.20
2023-02-17T21:13:07.737Z,68.00
2023-02-17T21:15:34.939Z,71.10
2023-02-17T21:18:01.817Z,68.50
2023-02-17T21:20:28.595Z,68.20
2023-02-17T21:22:55.349Z,66.70
2023-02-17T21:25:22.270Z,71.90
2023-02-17T21:27:49.212Z,64.10
2023-02-17T21:30:16.099Z,69.30
2023-02-17T21:32:43.212Z,65.00
2023-02-17T21:35:11.217Z,64.70
2023-02-17T21:37:41.388Z,63.20
2023-02-17T21:40:09.626Z,65.50
2023-02-17T21:42:58.440Z,66.80
2023-02-17T21:45:26.088Z,74.60
2023-02-17T21:47:52.779Z,73.50
2023-02-17T21:50:23.407Z,72.20
2023-02-17T21:52:50.250Z,66.90
2023-02-17T21:55:16.977Z,68.90
2023-02-17T21:57:43.704Z,76.70
2023-02-17T22:00:11.318Z,78.70
2023-02-17T22:02:42.908Z,75.10
2023-02-17T22:05:11.228Z,85.10
2023-02-17T22:07:38.634Z,79.30
2023-02-17T22:10:10.188Z,82.70
2023-02-17T22:12:39.180Z,84.20
2023-02-17T22:15:07.360Z,86.50
2023-02-17T22:17:35.821Z,83.70
2023-02-17T22:20:05.179Z,84.70
2023-02-17T22:22:33.805Z,83.00
2023-02-17T22:25:01.690Z,77.50
2023-02-17T22:27:29.148Z,68.80
2023-02-17T22:29:56.946Z,77.10
2023-02-17T22:32:24.131Z,74.70
2023-02-17T22:34:51.105Z,73.30
2023-02-17T22:37:18.451Z,77.90
2023-02-17T22:39:45.733Z,73.30
2023-02-17T22:42:14.001Z,70.70
2023-02-17T22:44:41.297Z,75.30
2023-02-17T22:47:08.713Z,76.90
2023-02-17T22:49:36.267Z,78.60
2023-02-17T22:52:04.345Z,75.10
2023-02-17T22:54:34.814Z,73.90
2023-02-17T22:57:05.812Z,74.70
2023-02-17T22:59:35.956Z,69.90
2023-02-17T23:02:03.292Z,74.60
2023-02-17T23:04:32.089Z,69.90
2023-02-17T23:06:59.741Z,73.80
2023-02-17T23:09:26.938Z,72.40
2023-02-17T23:11:54.580Z,75.00
2023-02-17T23:14:34.347Z,71.40
2023-02-17T23:17:11.280Z,64.30
2023-02-17T23:19:40.774Z,76.40
2023-02-17T23:22:12.144Z,66.20
2023-02-17T23:24:42.411Z,70.50
2023-02-17T23:27:10.587Z,68.80
2023-02-17T23:29:39.580Z,69.80
2023-02-17T23:32:10.723Z,64.50
2023-02-17T23:34:38.855Z,65.50
2023-02-17T23:37:15.812Z,64.30
2023-02-17T23:39:59.988Z,72.40
2023-02-17T23:42:49.566Z,67.90
2023-02-17T23:45:18.252Z,61.10
2023-02-17T23:47:51.852Z,68.20
2023-02-17T23:50:19.558Z,66.70
2023-02-17T23:52:47.532Z,66.70
2023-02-17T23:55:15.805Z,67.40
2023-02-17T23:57:43.057Z,62.20
